sensor_id;sensor_type;location;lat;lon;timestamp;pressure;altitude;pressure_sealevel;temperature
14023;BMP180;7086;48.116;11.580;2023-06-24T00:01:53;96221.00;;;22.00
14023;BMP180;7086;48.116;11.580;2023-06-24T00:04:20;96215.00;;;22.00
14023;BMP180;7086;48.116;11.580;2023-06-24T00:06:50;96215.00;;;22.00
14023;BMP180;7086;48.116;11.580;2023-06-24T00:09:17;96187.00;;;22.00
14023;BMP180;7086;48.116;11.580;2023-06-24T00:11:44;96217.00;;;22.00
14023;BMP180;7086;48.116;11.580;2023-06-24T00:14:12;96218.00;;;22.00
14023;BMP180;7086;48.116;11.580;2023-06-24T00:16:40;96221.00;;;22.00
14023;BMP180;7086;48.116;11.580;2023-06-24T00:19:07;96180.00;;;22.00
14023;BMP180;7086;48.116;11.580;2023-06-24T00:21:34;96195.00;;;21.90
14023;BMP180;7086;48.116;11.580;2023-06-24T00:24:04;96176.00;;;22.00
14023;BMP180;7086;48.116;11.580;2023-06-24T00:26:31;96221.00;;;22.00
14023;BMP180;7086;48.116;11.580;2023-06-24T00:28:58;96206.00;;;22.00
14023;BMP180;7086;48.116;11.580;2023-06-24T00:31:25;96215.00;;;22.00
14023;BMP180;7086;48.116;11.580;2023-06-24T00:33:52;96215.00;;;22.00
14023;BMP180;7086;48.116;11.580;2023-06-24T00:36:19;96193.00;;;22.00
14023;BMP180;7086;48.116;11.580;2023-06-24T00:38:46;96182.00;;;22.00
14023;BMP180;7086;48.116;11.580;2023-06-24T00:41:16;96208.00;;;22.00
14023;BMP180;7086;48.116;11.580;2023-06-24T00:43:45;96198.00;;;21.90
14023;BMP180;7086;48.116;11.580;2023-06-24T00:46:13;96215.00;;;22.00
14023;BMP180;7086;48.116;11.580;2023-06-24T00:48:41;96205.00;;;22.00
14023;BMP180;7086;48.116;11.580;2023-06-24T00:51:08;96172.00;;;22.00
14023;BMP180;7086;48.116;11.580;2023-06-24T00:53:35;96192.00;;;21.90
14023;BMP180;7086;48.116;11.580;2023-06-24T00:56:02;96196.00;;;21.90
14023;BMP180;7086;48.116;11.580;2023-06-24T00:58:32;96166.00;;;21.90
14023;BMP180;7086;48.116;11.580;2023-06-24T01:01:00;96190.00;;;21.90
14023;BMP180;7086;48.116;11.580;2023-06-24T01:03:28;96182.00;;;21.90
14023;BMP180;7086;48.116;11.580;2023-06-24T01:05:57;96186.00;;;21.80
14023;BMP180;7086;48.116;11.580;2023-06-24T01:08:25;96185.00;;;21.80
14023;BMP180;7086;48.116;11.580;2023-06-24T01:10:51;96185.00;;;21.80
14023;BMP180;7086;48.116;11.580;2023-06-24T01:13:18;96187.00;;;21.80
14023;BMP180;7086;48.116;11.580;2023-06-24T01:15:47;96120.00;;;21.80
14023;BMP180;7086;48.116;11.580;2023-06-24T01:18:21;96177.00;;;21.70
14023;BMP180;7086;48.116;11.580;2023-06-24T01:20:55;96177.00;;;21.80
14023;BMP180;7086;48.116;11.580;2023-06-24T01:24:01;96171.00;;;21.80
14023;BMP180;7086;48.116;11.580;2023-06-24T01:26:47;96153.00;;;21.80
14023;BMP180;7086;48.116;11.580;2023-06-24T01:29:42;96133.00;;;21.70
14023;BMP180;7086;48.116;11.580;2023-06-24T01:32:23;96140.00;;;21.70
14023;BMP180;7086;48.116;11.580;2023-06-24T01:34:57;96151.00;;;21.70
14023;BMP180;7086;48.116;11.580;2023-06-24T01:37:28;96171.00;;;21.60
14023;BMP180;7086;48.116;11.580;2023-06-24T01:40:04;96172.00;;;21.70
14023;BMP180;7086;48.116;11.580;2023-06-24T01:42:38;96172.00;;;21.70
14023;BMP180;7086;48.116;11.580;2023-06-24T01:45:07;96146.00;;;21.70
14023;BMP180;7086;48.116;11.580;2023-06-24T01:47:37;96162.00;;;21.80
14023;BMP180;7086;48.116;11.580;2023-06-24T01:50:10;96167.00;;;21.70
14023;BMP180;7086;48.116;11.580;2023-06-24T01:52:39;96172.00;;;21.70
14023;BMP180;7086;48.116;11.580;2023-06-24T01:55:09;96151.00;;;21.70
14023;BMP180;7086;48.116;11.580;2023-06-24T01:57:39;96158.00;;;21.70
14023;BMP180;7086;48.116;11.580;2023-06-24T02:00:08;96131.00;;;21.70
14023;BMP180;7086;48.116;11.580;2023-06-24T02:02:38;96121.00;;;21.60
14023;BMP180;7086;48.116;11.580;2023-06-24T02:05:06;96169.00;;;21.60
14023;BMP180;7086;48.116;11.580;2023-06-24T02:07:34;96157.00;;;21.60
14023;BMP180;7086;48.116;11.580;2023-06-24T02:10:02;96157.00;;;21.60
14023;BMP180;7086;48.116;11.580;2023-06-24T02:12:29;96151.00;;;21.60
14023;BMP180;7086;48.116;11.580;2023-06-24T02:14:58;96161.00;;;21.50
14023;BMP180;7086;48.116;11.580;2023-06-24T02:17:26;96138.00;;;21.50
14023;BMP180;7086;48.116;11.580;2023-06-24T02:19:57;96164.00;;;21.40
14023;BMP180;7086;48.116;11.580;2023-06-24T02:22:24;96148.00;;;21.40
14023;BMP180;7086;48.116;11.580;2023-06-24T02:24:52;96175.00;;;21.30
14023;BMP180;7086;48.116;11.580;2023-06-24T02:27:22;96167.00;;;21.40
14023;BMP180;7086;48.116;11.580;2023-06-24T02:29:49;96148.00;;;21.40
14023;BMP180;7086;48.116;11.580;2023-06-24T02:32:16;96142.00;;;21.40
14023;BMP180;7086;48.116;11.580;2023-06-24T02:34:43;96135.00;;;21.30
14023;BMP180;7086;48.116;11.580;2023-06-24T02:37:11;96162.00;;;21.30
14023;BMP180;7086;48.116;11.580;2023-06-24T02:39:38;96167.00;;;21.30
14023;BMP180;7086;48.116;11.580;2023-06-24T02:42:09;96176.00;;;21.30
14023;BMP180;7086;48.116;11.580;2023-06-24T02:44:36;96171.00;;;21.30
14023;BMP180;7086;48.116;11.580;2023-06-24T02:47:04;96166.00;;;21.30
14023;BMP180;7086;48.116;11.580;2023-06-24T02:49:32;96177.00;;;21.20
14023;BMP180;7086;48.116;11.580;2023-06-24T02:51:59;96174.00;;;21.20
14023;BMP180;7086;48.116;11.580;2023-06-24T02:54:27;96183.00;;;21.20
14023;BMP180;7086;48.116;11.580;2023-06-24T02:56:55;96187.00;;;21.20
14023;BMP180;7086;48.116;11.580;2023-06-24T02:59:23;96194.00;;;21.20
14023;BMP180;7086;48.116;11.580;2023-06-24T03:01:50;96194.00;;;21.20
14023;BMP180;7086;48.116;11.580;2023-06-24T03:04:18;96203.00;;;21.20
14023;BMP180;7086;48.116;11.580;2023-06-24T03:06:45;96195.00;;;21.20
14023;BMP180;7086;48.116;11.580;2023-06-24T03:09:14;96202.00;;;21.20
14023;BMP180;7086;48.116;11.580;2023-06-24T03:11:42;96183.00;;;21.20
14023;BMP180;7086;48.116;11.580;2023-06-24T03:14:09;96199.00;;;21.20
14023;BMP180;7086;48.116;11.580;2023-06-24T03:16:36;96205.00;;;21.20
14023;BMP180;7086;48.116;11.580;2023-06-24T03:19:04;96199.00;;;21.20
14023;BMP180;7086;48.116;11.580;2023-06-24T03:21:31;96213.00;;;21.10
14023;BMP180;7086;48.116;11.580;2023-06-24T03:23:58;96215.00;;;21.20
14023;BMP180;7086;48.116;11.580;2023-06-24T03:26:31;96219.00;;;21.20
14023;BMP180;7086;48.116;11.580;2023-06-24T03:28:59;96219.00;;;21.20
14023;BMP180;7086;48.116;11.580;2023-06-24T03:31:26;96220.00;;;21.10
14023;BMP180;7086;48.116;11.580;2023-06-24T03:33:53;96210.00;;;21.20
14023;BMP180;7086;48.116;11.580;2023-06-24T03:36:20;96197.00;;;21.20
14023;BMP180;7086;48.116;11.580;2023-06-24T03:38:47;96212.00;;;21.20
14023;BMP180;7086;48.116;11.580;2023-06-24T03:41:14;96197.00;;;21.10
14023;BMP180;7086;48.116;11.580;2023-06-24T03:43:41;96213.00;;;21.20
14023;BMP180;7086;48.116;11.580;2023-06-24T03:46:10;96180.00;;;21.20
14023;BMP180;7086;48.116;11.580;2023-06-24T03:48:37;96218.00;;;21.20
14023;BMP180;7086;48.116;11.580;2023-06-24T03:51:04;96133.00;;;21.20
14023;BMP180;7086;48.116;11.580;2023-06-24T03:53:30;96229.00;;;21.20
14023;BMP180;7086;48.116;11.580;2023-06-24T03:55:58;96186.00;;;21.20
14023;BMP180;7086;48.116;11.580;2023-06-24T03:58:25;96220.00;;;21.20
14023;BMP180;7086;48.116;11.580;2023-06-24T04:00:52;96237.00;;;21.20
14023;BMP180;7086;48.116;11.580;2023-06-24T04:03:23;96229.00;;;21.30
14023;BMP180;7086;48.116;11.580;2023-06-24T04:05:53;96212.00;;;21.30
14023;BMP180;7086;48.116;11.580;2023-06-24T04:08:19;96169.00;;;21.30
14023;BMP180;7086;48.116;11.580;2023-06-24T04:10:46;96229.00;;;21.40
14023;BMP180;7086;48.116;11.580;2023-06-24T04:13:13;96202.00;;;21.40
14023;BMP180;7086;48.116;11.580;2023-06-24T04:15:40;96218.00;;;21.40
14023;BMP180;7086;48.116;11.580;2023-06-24T04:18:07;96217.00;;;21.40
14023;BMP180;7086;48.116;11.580;2023-06-24T04:20:35;96214.00;;;21.50
14023;BMP180;7086;48.116;11.580;2023-06-24T04:23:04;96151.00;;;21.50
14023;BMP180;7086;48.116;11.580;2023-06-24T04:25:31;96221.00;;;21.60
14023;BMP180;7086;48.116;11.580;2023-06-24T04:27:58;96217.00;;;21.70
14023;BMP180;7086;48.116;11.580;2023-06-24T04:30:25;96205.00;;;21.70
14023;BMP180;7086;48.116;11.580;2023-06-24T04:32:51;96220.00;;;21.80
14023;BMP180;7086;48.116;11.580;2023-06-24T04:35:18;96210.00;;;21.80
14023;BMP180;7086;48.116;11.580;2023-06-24T04:37:46;96223.00;;;21.90
14023;BMP180;7086;48.116;11.580;2023-06-24T04:40:15;96229.00;;;21.90
14023;BMP180;7086;48.116;11.580;2023-06-24T04:42:42;96238.00;;;22.00
14023;BMP180;7086;48.116;11.580;2023-06-24T04:45:09;96239.00;;;22.00
14023;BMP180;7086;48.116;11.580;2023-06-24T04:47:36;96238.00;;;22.10
14023;BMP180;7086;48.116;11.580;2023-06-24T04:50:03;96241.00;;;22.10
14023;BMP180;7086;48.116;11.580;2023-06-24T04:52:30;96241.00;;;22.20
14023;BMP180;7086;48.116;11.580;2023-06-24T04:54:58;96246.00;;;22.20
14023;BMP180;7086;48.116;11.580;2023-06-24T04:57:27;96242.00;;;22.30
14023;BMP180;7086;48.116;11.580;2023-06-24T04:59:54;96243.00;;;22.30
14023;BMP180;7086;48.116;11.580;2023-06-24T05:02:21;96243.00;;;22.40
14023;BMP180;7086;48.116;11.580;2023-06-24T05:04:48;96230.00;;;22.50
14023;BMP180;7086;48.116;11.580;2023-06-24T05:07:15;96237.00;;;22.50
14023;BMP180;7086;48.116;11.580;2023-06-24T05:09:42;96242.00;;;22.60
14023;BMP180;7086;48.116;11.580;2023-06-24T05:12:10;96221.00;;;22.70
14023;BMP180;7086;48.116;11.580;2023-06-24T05:14:37;96249.00;;;22.90
14023;BMP180;7086;48.116;11.580;2023-06-24T05:17:04;96243.00;;;23.00
14023;BMP180;7086;48.116;11.580;2023-06-24T05:19:31;96227.00;;;23.10
14023;BMP180;7086;48.116;11.580;2023-06-24T05:21:58;96244.00;;;23.20
14023;BMP180;7086;48.116;11.580;2023-06-24T05:24:25;96244.00;;;23.30
14023;BMP180;7086;48.116;11.580;2023-06-24T05:26:52;96250.00;;;23.40
14023;BMP180;7086;48.116;11.580;2023-06-24T05:29:20;96247.00;;;23.50
14023;BMP180;7086;48.116;11.580;2023-06-24T05:31:47;96231.00;;;23.60
14023;BMP180;7086;48.116;11.580;2023-06-24T05:34:14;96255.00;;;23.60
14023;BMP180;7086;48.116;11.580;2023-06-24T05:36:41;96258.00;;;23.70
14023;BMP180;7086;48.116;11.580;2023-06-24T05:39:08;96248.00;;;23.80
14023;BMP180;7086;48.116;11.580;2023-06-24T05:41:35;96252.00;;;23.90
14023;BMP180;7086;48.116;11.580;2023-06-24T05:44:02;96252.00;;;24.00
14023;BMP180;7086;48.116;11.580;2023-06-24T05:46:30;96242.00;;;24.20
14023;BMP180;7086;48.116;11.580;2023-06-24T05:48:57;96252.00;;;24.40
14023;BMP180;7086;48.116;11.580;2023-06-24T05:51:24;96248.00;;;24.50
14023;BMP180;7086;48.116;11.580;2023-06-24T05:53:51;96267.00;;;24.70
14023;BMP180;7086;48.116;11.580;2023-06-24T05:56:19;96255.00;;;24.90
14023;BMP180;7086;48.116;11.580;2023-06-24T05:58:46;96263.00;;;25.00
14023;BMP180;7086;48.116;11.580;2023-06-24T06:01:12;96268.00;;;25.10
14023;BMP180;7086;48.116;11.580;2023-06-24T06:03:41;96271.00;;;25.30
14023;BMP180;7086;48.116;11.580;2023-06-24T06:06:07;96271.00;;;25.30
14023;BMP180;7086;48.116;11.580;2023-06-24T06:08:34;96260.00;;;25.40
14023;BMP180;7086;48.116;11.580;2023-06-24T06:11:01;96263.00;;;25.50
14023;BMP180;7086;48.116;11.580;2023-06-24T06:13:28;96253.00;;;25.60
14023;BMP180;7086;48.116;11.580;2023-06-24T06:15:55;96269.00;;;25.70
14023;BMP180;7086;48.116;11.580;2023-06-24T06:18:22;96269.00;;;25.90
14023;BMP180;7086;48.116;11.580;2023-06-24T06:20:50;96251.00;;;26.00
14023;BMP180;7086;48.116;11.580;2023-06-24T06:23:17;96270.00;;;26.10
14023;BMP180;7086;48.116;11.580;2023-06-24T06:25:44;96254.00;;;26.20
14023;BMP180;7086;48.116;11.580;2023-06-24T06:28:10;96257.00;;;26.30
14023;BMP180;7086;48.116;11.580;2023-06-24T06:30:38;96270.00;;;26.40
14023;BMP180;7086;48.116;11.580;2023-06-24T06:33:05;96264.00;;;26.60
14023;BMP180;7086;48.116;11.580;2023-06-24T06:35:31;96263.00;;;26.70
14023;BMP180;7086;48.116;11.580;2023-06-24T06:38:00;96269.00;;;26.70
14023;BMP180;7086;48.116;11.580;2023-06-24T06:40:26;96267.00;;;26.90
14023;BMP180;7086;48.116;11.580;2023-06-24T06:42:54;96271.00;;;27.10
14023;BMP180;7086;48.116;11.580;2023-06-24T06:45:21;96262.00;;;27.20
14023;BMP180;7086;48.116;11.580;2023-06-24T06:47:48;96273.00;;;27.30
14023;BMP180;7086;48.116;11.580;2023-06-24T06:50:15;96265.00;;;27.40
14023;BMP180;7086;48.116;11.580;2023-06-24T06:52:42;96272.00;;;27.60
14023;BMP180;7086;48.116;11.580;2023-06-24T06:55:10;96260.00;;;27.70
14023;BMP180;7086;48.116;11.580;2023-06-24T06:57:37;96268.00;;;27.80
14023;BMP180;7086;48.116;11.580;2023-06-24T07:00:05;96280.00;;;28.10
14023;BMP180;7086;48.116;11.580;2023-06-24T07:02:32;96281.00;;;28.20
14023;BMP180;7086;48.116;11.580;2023-06-24T07:05:00;96279.00;;;28.30
14023;BMP180;7086;48.116;11.580;2023-06-24T07:07:27;96250.00;;;28.30
14023;BMP180;7086;48.116;11.580;2023-06-24T07:09:53;96275.00;;;28.50
14023;BMP180;7086;48.116;11.580;2023-06-24T07:12:23;96267.00;;;28.70
14023;BMP180;7086;48.116;11.580;2023-06-24T07:14:50;96265.00;;;29.00
14023;BMP180;7086;48.116;11.580;2023-06-24T07:17:16;96267.00;;;29.30
14023;BMP180;7086;48.116;11.580;2023-06-24T07:19:43;96262.00;;;29.50
14023;BMP180;7086;48.116;11.580;2023-06-24T07:22:10;96269.00;;;29.80
14023;BMP180;7086;48.116;11.580;2023-06-24T07:24:37;96275.00;;;30.00
14023;BMP180;7086;48.116;11.580;2023-06-24T07:27:05;96276.00;;;30.30
14023;BMP180;7086;48.116;11.580;2023-06-24T07:29:33;96272.00;;;30.60
14023;BMP180;7086;48.116;11.580;2023-06-24T07:32:00;96270.00;;;30.90
14023;BMP180;7086;48.116;11.580;2023-06-24T07:34:26;96266.00;;;31.20
14023;BMP180;7086;48.116;11.580;2023-06-24T07:36:53;96271.00;;;31.40
14023;BMP180;7086;48.116;11.580;2023-06-24T07:39:20;96272.00;;;31.60
14023;BMP180;7086;48.116;11.580;2023-06-24T07:41:47;96268.00;;;31.70
14023;BMP180;7086;48.116;11.580;2023-06-24T07:44:14;96265.00;;;31.80
14023;BMP180;7086;48.116;11.580;2023-06-24T07:46:42;96274.00;;;31.80
14023;BMP180;7086;48.116;11.580;2023-06-24T07:49:09;96273.00;;;31.70
14023;BMP180;7086;48.116;11.580;2023-06-24T07:51:36;96259.00;;;31.60
14023;BMP180;7086;48.116;11.580;2023-06-24T07:54:03;96274.00;;;31.30
14023;BMP180;7086;48.116;11.580;2023-06-24T07:56:30;96284.00;;;31.20
14023;BMP180;7086;48.116;11.580;2023-06-24T07:58:57;96282.00;;;31.10
14023;BMP180;7086;48.116;11.580;2023-06-24T08:01:23;96274.00;;;31.00
14023;BMP180;7086;48.116;11.580;2023-06-24T08:03:52;96284.00;;;30.80
14023;BMP180;7086;48.116;11.580;2023-06-24T08:06:18;96263.00;;;30.70
14023;BMP180;7086;48.116;11.580;2023-06-24T08:08:45;96283.00;;;30.50
14023;BMP180;7086;48.116;11.580;2023-06-24T08:11:12;96279.00;;;30.40
14023;BMP180;7086;48.116;11.580;2023-06-24T08:13:39;96287.00;;;30.40
14023;BMP180;7086;48.116;11.580;2023-06-24T08:16:06;96293.00;;;30.50
14023;BMP180;7086;48.116;11.580;2023-06-24T08:18:33;96285.00;;;30.60
14023;BMP180;7086;48.116;11.580;2023-06-24T08:21:01;96279.00;;;30.80
14023;BMP180;7086;48.116;11.580;2023-06-24T08:23:28;96261.00;;;31.10
14023;BMP180;7086;48.116;11.580;2023-06-24T08:25:54;96285.00;;;31.50
14023;BMP180;7086;48.116;11.580;2023-06-24T08:28:21;96264.00;;;31.90
14023;BMP180;7086;48.116;11.580;2023-06-24T08:30:48;96279.00;;;32.30
14023;BMP180;7086;48.116;11.580;2023-06-24T08:33:15;96261.00;;;32.60
14023;BMP180;7086;48.116;11.580;2023-06-24T08:35:42;96260.00;;;33.00
14023;BMP180;7086;48.116;11.580;2023-06-24T08:38:10;96270.00;;;33.20
14023;BMP180;7086;48.116;11.580;2023-06-24T08:40:38;96269.00;;;33.40
14023;BMP180;7086;48.116;11.580;2023-06-24T08:43:06;96273.00;;;33.60
14023;BMP180;7086;48.116;11.580;2023-06-24T08:45:33;96269.00;;;33.80
14023;BMP180;7086;48.116;11.580;2023-06-24T08:48:00;96274.00;;;33.80
14023;BMP180;7086;48.116;11.580;2023-06-24T08:50:33;96270.00;;;33.70
14023;BMP180;7086;48.116;11.580;2023-06-24T08:53:03;96278.00;;;33.50
14023;BMP180;7086;48.116;11.580;2023-06-24T08:55:32;96282.00;;;33.20
14023;BMP180;7086;48.116;11.580;2023-06-24T08:58:02;96272.00;;;33.10
14023;BMP180;7086;48.116;11.580;2023-06-24T09:00:29;96273.00;;;33.00
14023;BMP180;7086;48.116;11.580;2023-06-24T09:02:56;96271.00;;;32.90
14023;BMP180;7086;48.116;11.580;2023-06-24T09:05:24;96255.00;;;32.70
14023;BMP180;7086;48.116;11.580;2023-06-24T09:07:51;96280.00;;;32.40
14023;BMP180;7086;48.116;11.580;2023-06-24T09:10:33;96278.00;;;32.00
14023;BMP180;7086;48.116;11.580;2023-06-24T09:13:00;96279.00;;;31.70
14023;BMP180;7086;48.116;11.580;2023-06-24T09:15:30;96279.00;;;31.30
14023;BMP180;7086;48.116;11.580;2023-06-24T09:17:58;96296.00;;;31.00
14023;BMP180;7086;48.116;11.580;2023-06-24T09:20:26;96282.00;;;30.70
14023;BMP180;7086;48.116;11.580;2023-06-24T09:22:58;96274.00;;;30.50
14023;BMP180;7086;48.116;11.580;2023-06-24T09:25:25;96271.00;;;30.70
14023;BMP180;7086;48.116;11.580;2023-06-24T09:27:53;96262.00;;;31.30
14023;BMP180;7086;48.116;11.580;2023-06-24T09:30:22;96269.00;;;31.80
14023;BMP180;7086;48.116;11.580;2023-06-24T09:32:49;96270.00;;;32.30
14023;BMP180;7086;48.116;11.580;2023-06-24T09:35:18;96273.00;;;32.80
14023;BMP180;7086;48.116;11.580;2023-06-24T09:37:49;96265.00;;;33.10
14023;BMP180;7086;48.116;11.580;2023-06-24T09:40:16;96249.00;;;33.60
14023;BMP180;7086;48.116;11.580;2023-06-24T09:42:48;96257.00;;;34.10
14023;BMP180;7086;48.116;11.580;2023-06-24T09:45:21;96260.00;;;34.50
14023;BMP180;7086;48.116;11.580;2023-06-24T09:47:48;96261.00;;;35.00
14023;BMP180;7086;48.116;11.580;2023-06-24T09:50:15;96252.00;;;35.40
14023;BMP180;7086;48.116;11.580;2023-06-24T09:52:43;96254.00;;;35.90
14023;BMP180;7086;48.116;11.580;2023-06-24T09:55:13;96246.00;;;36.20
14023;BMP180;7086;48.116;11.580;2023-06-24T09:57:42;96248.00;;;36.50
14023;BMP180;7086;48.116;11.580;2023-06-24T10:00:12;96255.00;;;36.80
14023;BMP180;7086;48.116;11.580;2023-06-24T10:02:42;96256.00;;;36.70
14023;BMP180;7086;48.116;11.580;2023-06-24T10:05:09;96258.00;;;36.40
14023;BMP180;7086;48.116;11.580;2023-06-24T10:07:37;96256.00;;;35.70
14023;BMP180;7086;48.116;11.580;2023-06-24T10:10:06;96242.00;;;35.20
14023;BMP180;7086;48.116;11.580;2023-06-24T10:12:35;96248.00;;;34.60
14023;BMP180;7086;48.116;11.580;2023-06-24T10:15:03;96237.00;;;34.20
14023;BMP180;7086;48.116;11.580;2023-06-24T10:17:30;96242.00;;;33.70
14023;BMP180;7086;48.116;11.580;2023-06-24T10:20:03;96248.00;;;33.20
14023;BMP180;7086;48.116;11.580;2023-06-24T10:22:30;96244.00;;;32.70
14023;BMP180;7086;48.116;11.580;2023-06-24T10:24:59;96228.00;;;32.50
14023;BMP180;7086;48.116;11.580;2023-06-24T10:27:26;96209.00;;;32.70
14023;BMP180;7086;48.116;11.580;2023-06-24T10:30:02;96228.00;;;32.90
14023;BMP180;7086;48.116;11.580;2023-06-24T10:32:39;96219.00;;;33.00
14023;BMP180;7086;48.116;11.580;2023-06-24T10:35:21;96189.00;;;32.80
14023;BMP180;7086;48.116;11.580;2023-06-24T10:37:54;96217.00;;;32.50
14023;BMP180;7086;48.116;11.580;2023-06-24T10:40:45;96235.00;;;32.20
14023;BMP180;7086;48.116;11.580;2023-06-24T10:43:28;96215.00;;;31.80
14023;BMP180;7086;48.116;11.580;2023-06-24T10:45:57;96213.00;;;31.50
14023;BMP180;7086;48.116;11.580;2023-06-24T10:48:24;96221.00;;;31.20
14023;BMP180;7086;48.116;11.580;2023-06-24T10:50:52;96212.00;;;31.10
14023;BMP180;7086;48.116;11.580;2023-06-24T10:53:21;96217.00;;;30.90
14023;BMP180;7086;48.116;11.580;2023-06-24T10:55:48;96205.00;;;31.00
14023;BMP180;7086;48.116;11.580;2023-06-24T10:58:15;96200.00;;;31.20
14023;BMP180;7086;48.116;11.580;2023-06-24T11:00:43;96167.00;;;31.60
14023;BMP180;7086;48.116;11.580;2023-06-24T11:03:12;96188.00;;;32.00
14023;BMP180;7086;48.116;11.580;2023-06-24T11:05:39;96200.00;;;32.40
14023;BMP180;7086;48.116;11.580;2023-06-24T11:08:08;96193.00;;;32.80
14023;BMP180;7086;48.116;11.580;2023-06-24T11:10:42;96186.00;;;33.10
14023;BMP180;7086;48.116;11.580;2023-06-24T11:13:10;96172.00;;;33.30
14023;BMP180;7086;48.116;11.580;2023-06-24T11:15:38;96150.00;;;33.50
14023;BMP180;7086;48.116;11.580;2023-06-24T11:18:05;96183.00;;;33.70
14023;BMP180;7086;48.116;11.580;2023-06-24T11:20:35;96160.00;;;33.90
14023;BMP180;7086;48.116;11.580;2023-06-24T11:23:05;96184.00;;;33.80
14023;BMP180;7086;48.116;11.580;2023-06-24T11:25:38;96169.00;;;33.60
14023;BMP180;7086;48.116;11.580;2023-06-24T11:28:05;96161.00;;;33.10
14023;BMP180;7086;48.116;11.580;2023-06-24T11:30:38;96159.00;;;32.70
14023;BMP180;7086;48.116;11.580;2023-06-24T11:33:05;96161.00;;;32.30
14023;BMP180;7086;48.116;11.580;2023-06-24T11:35:32;96151.00;;;32.00
14023;BMP180;7086;48.116;11.580;2023-06-24T11:38:00;96151.00;;;31.70
14023;BMP180;7086;48.116;11.580;2023-06-24T11:40:27;96149.00;;;31.40
14023;BMP180;7086;48.116;11.580;2023-06-24T11:43:00;96138.00;;;31.20
14023;BMP180;7086;48.116;11.580;2023-06-24T11:45:27;96128.00;;;31.10
14023;BMP180;7086;48.116;11.580;2023-06-24T11:48:01;96133.00;;;31.00
14023;BMP180;7086;48.116;11.580;2023-06-24T11:50:30;96137.00;;;31.00
14023;BMP180;7086;48.116;11.580;2023-06-24T11:52:57;96130.00;;;31.00
14023;BMP180;7086;48.116;11.580;2023-06-24T11:55:25;96124.00;;;31.00
14023;BMP180;7086;48.116;11.580;2023-06-24T11:57:54;96129.00;;;30.90
14023;BMP180;7086;48.116;11.580;2023-06-24T12:00:24;96125.00;;;30.80
14023;BMP180;7086;48.116;11.580;2023-06-24T12:02:53;96128.00;;;30.70
14023;BMP180;7086;48.116;11.580;2023-06-24T12:05:23;96116.00;;;30.60
14023;BMP180;7086;48.116;11.580;2023-06-24T12:07:54;96111.00;;;30.60
14023;BMP180;7086;48.116;11.580;2023-06-24T12:10:21;96121.00;;;30.60
14023;BMP180;7086;48.116;11.580;2023-06-24T12:12:48;96112.00;;;30.70
14023;BMP180;7086;48.116;11.580;2023-06-24T12:15:15;96107.00;;;30.80
14023;BMP180;7086;48.116;11.580;2023-06-24T12:17:43;96111.00;;;30.90
14023;BMP180;7086;48.116;11.580;2023-06-24T12:20:10;96112.00;;;31.00
14023;BMP180;7086;48.116;11.580;2023-06-24T12:22:39;96091.00;;;31.00
14023;BMP180;7086;48.116;11.580;2023-06-24T12:25:06;96105.00;;;31.00
14023;BMP180;7086;48.116;11.580;2023-06-24T12:27:33;96103.00;;;30.90
14023;BMP180;7086;48.116;11.580;2023-06-24T12:30:00;96069.00;;;30.80
14023;BMP180;7086;48.116;11.580;2023-06-24T12:32:27;96102.00;;;30.60
14023;BMP180;7086;48.116;11.580;2023-06-24T12:34:55;96098.00;;;30.40
14023;BMP180;7086;48.116;11.580;2023-06-24T12:37:22;96092.00;;;30.20
14023;BMP180;7086;48.116;11.580;2023-06-24T12:39:49;96091.00;;;30.00
14023;BMP180;7086;48.116;11.580;2023-06-24T12:42:16;96091.00;;;29.80
14023;BMP180;7086;48.116;11.580;2023-06-24T12:44:43;96089.00;;;29.60
14023;BMP180;7086;48.116;11.580;2023-06-24T12:47:09;96087.00;;;29.50
14023;BMP180;7086;48.116;11.580;2023-06-24T12:49:36;96062.00;;;29.50
14023;BMP180;7086;48.116;11.580;2023-06-24T12:52:05;96063.00;;;29.50
14023;BMP180;7086;48.116;11.580;2023-06-24T12:54:32;96070.00;;;29.50
14023;BMP180;7086;48.116;11.580;2023-06-24T12:56:58;96068.00;;;29.50
14023;BMP180;7086;48.116;11.580;2023-06-24T12:59:25;96072.00;;;29.50
14023;BMP180;7086;48.116;11.580;2023-06-24T13:01:52;96070.00;;;29.60
14023;BMP180;7086;48.116;11.580;2023-06-24T13:04:19;96069.00;;;29.70
14023;BMP180;7086;48.116;11.580;2023-06-24T13:06:48;96059.00;;;29.70
14023;BMP180;7086;48.116;11.580;2023-06-24T13:09:17;96065.00;;;29.90
14023;BMP180;7086;48.116;11.580;2023-06-24T13:11:44;96053.00;;;30.00
14023;BMP180;7086;48.116;11.580;2023-06-24T13:14:12;96067.00;;;30.20
14023;BMP180;7086;48.116;11.580;2023-06-24T13:16:39;96065.00;;;30.30
14023;BMP180;7086;48.116;11.580;2023-06-24T13:19:05;96060.00;;;30.30
14023;BMP180;7086;48.116;11.580;2023-06-24T13:21:32;96050.00;;;30.50
14023;BMP180;7086;48.116;11.580;2023-06-24T13:23:59;96047.00;;;30.60
14023;BMP180;7086;48.116;11.580;2023-06-24T13:26:27;96044.00;;;30.70
14023;BMP180;7086;48.116;11.580;2023-06-24T13:28:54;96044.00;;;30.90
14023;BMP180;7086;48.116;11.580;2023-06-24T13:31:21;96052.00;;;31.00
14023;BMP180;7086;48.116;11.580;2023-06-24T13:33:47;96049.00;;;31.10
14023;BMP180;7086;48.116;11.580;2023-06-24T13:36:29;96047.00;;;31.20
14023;BMP180;7086;48.116;11.580;2023-06-24T13:38:56;96045.00;;;31.20
14023;BMP180;7086;48.116;11.580;2023-06-24T13:41:23;96044.00;;;31.20
14023;BMP180;7086;48.116;11.580;2023-06-24T13:43:52;96041.00;;;31.30
14023;BMP180;7086;48.116;11.580;2023-06-24T13:46:19;96041.00;;;31.30
14023;BMP180;7086;48.116;11.580;2023-06-24T13:48:46;96039.00;;;31.20
14023;BMP180;7086;48.116;11.580;2023-06-24T13:51:13;96047.00;;;31.20
14023;BMP180;7086;48.116;11.580;2023-06-24T13:53:40;96035.00;;;31.10
14023;BMP180;7086;48.116;11.580;2023-06-24T13:56:06;96023.00;;;31.00
14023;BMP180;7086;48.116;11.580;2023-06-24T13:58:33;96044.00;;;30.90
14023;BMP180;7086;48.116;11.580;2023-06-24T14:01:01;96040.00;;;30.90
14023;BMP180;7086;48.116;11.580;2023-06-24T14:03:28;96031.00;;;30.90
14023;BMP180;7086;48.116;11.580;2023-06-24T14:05:55;96034.00;;;30.90
14023;BMP180;7086;48.116;11.580;2023-06-24T14:08:23;96029.00;;;30.90
14023;BMP180;7086;48.116;11.580;2023-06-24T14:10:50;96015.00;;;30.80
14023;BMP180;7086;48.116;11.580;2023-06-24T14:13:16;96003.00;;;30.60
14023;BMP180;7086;48.116;11.580;2023-06-24T14:15:43;96028.00;;;30.50